sensor_id;sensor_type;location;lat;lon;timestamp;temperature;humidity
64198;SHT31;50512;53.666;9.700;2023-07-13T00:02:16;15.08;99.99
64198;SHT31;50512;53.666;9.700;2023-07-13T00:04:42;15.11;99.99
64198;SHT31;50512;53.666;9.700;2023-07-13T00:07:08;15.10;99.99
64198;SHT31;50512;53.666;9.700;2023-07-13T00:09:35;15.03;99.99
64198;SHT31;50512;53.666;9.700;2023-07-13T00:12:02;15.01;99.99
64198;SHT31;50512;53.666;9.700;2023-07-13T00:14:29;14.95;99.99
64198;SHT31;50512;53.666;9.700;2023-07-13T00:16:56;14.98;99.99
64198;SHT31;50512;53.666;9.700;2023-07-13T00:19:24;14.93;99.99
64198;SHT31;50512;53.666;9.700;2023-07-13T00:21:50;14.91;99.99
64198;SHT31;50512;53.666;9.700;2023-07-13T00:24:21;14.95;99.99
64198;SHT31;50512;53.666;9.700;2023-07-13T00:26:49;14.98;99.99
64198;SHT31;50512;53.666;9.700;2023-07-13T00:29:15;15.05;99.99
64198;SHT31;50512;53.666;9.700;2023-07-13T00:31:42;15.07;99.99
64198;SHT31;50512;53.666;9.700;2023-07-13T00:34:09;15.05;99.99
64198;SHT31;50512;53.666;9.700;2023-07-13T00:36:36;14.98;99.99
64198;SHT31;50512;53.666;9.700;2023-07-13T00:39:03;14.81;99.99
64198;SHT31;50512;53.666;9.700;2023-07-13T00:41:30;14.69;99.99
64198;SHT31;50512;53.666;9.700;2023-07-13T00:43:56;14.60;99.99
64198;SHT31;50512;53.666;9.700;2023-07-13T00:46:25;14.50;99.99
64198;SHT31;50512;53.666;9.700;2023-07-13T00:48:54;14.40;99.99
64198;SHT31;50512;53.666;9.700;2023-07-13T00:51:25;14.26;99.99
64198;SHT31;50512;53.666;9.700;2023-07-13T00:53:56;14.26;99.99
64198;SHT31;50512;53.666;9.700;2023-07-13T00:56:24;14.21;99.99
64198;SHT31;50512;53.666;9.700;2023-07-13T00:58:52;14.28;99.99
64198;SHT31;50512;53.666;9.700;2023-07-13T01:01:19;14.31;99.99
64198;SHT31;50512;53.666;9.700;2023-07-13T01:03:46;14.39;99.99
64198;SHT31;50512;53.666;9.700;2023-07-13T01:06:13;14.46;99.99
64198;SHT31;50512;53.666;9.700;2023-07-13T01:08:39;14.46;99.99
64198;SHT31;50512;53.666;9.700;2023-07-13T01:11:07;14.48;99.99
64198;SHT31;50512;53.666;9.700;2023-07-13T01:13:34;14.50;99.99
64198;SHT31;50512;53.666;9.700;2023-07-13T01:16:03;14.53;99.99
64198;SHT31;50512;53.666;9.700;2023-07-13T01:18:33;14.57;99.99
64198;SHT31;50512;53.666;9.700;2023-07-13T01:21:03;14.65;99.99
64198;SHT31;50512;53.666;9.700;2023-07-13T01:23:32;14.66;99.99
64198;SHT31;50512;53.666;9.700;2023-07-13T01:25:59;14.66;99.99
64198;SHT31;50512;53.666;9.700;2023-07-13T01:28:27;14.67;99.99
64198;SHT31;50512;53.666;9.700;2023-07-13T01:30:55;14.73;99.99
64198;SHT31;50512;53.666;9.700;2023-07-13T01:33:22;14.70;99.99
64198;SHT31;50512;53.666;9.700;2023-07-13T01:35:49;14.63;99.99
64198;SHT31;50512;53.666;9.700;2023-07-13T01:38:19;14.76;99.99
64198;SHT31;50512;53.666;9.700;2023-07-13T01:40:46;14.69;99.99
64198;SHT31;50512;53.666;9.700;2023-07-13T01:43:31;14.70;99.99
64198;SHT31;50512;53.666;9.700;2023-07-13T01:45:57;14.65;99.99
64198;SHT31;50512;53.666;9.700;2023-07-13T01:48:24;14.63;99.99
64198;SHT31;50512;53.666;9.700;2023-07-13T01:50:50;14.65;99.99
64198;SHT31;50512;53.666;9.700;2023-07-13T01:53:18;14.63;99.99
64198;SHT31;50512;53.666;9.700;2023-07-13T01:55:45;14.66;99.99
64198;SHT31;50512;53.666;9.700;2023-07-13T01:58:11;14.59;99.99
64198;SHT31;50512;53.666;9.700;2023-07-13T02:00:37;14.69;99.99
64198;SHT31;50512;53.666;9.700;2023-07-13T02:03:04;14.66;99.99
64198;SHT31;50512;53.666;9.700;2023-07-13T02:05:30;14.63;99.99
64198;SHT31;50512;53.666;9.700;2023-07-13T02:07:57;14.62;99.99
64198;SHT31;50512;53.666;9.700;2023-07-13T02:10:25;14.57;99.99
64198;SHT31;50512;53.666;9.700;2023-07-13T02:12:53;14.55;99.99
64198;SHT31;50512;53.666;9.700;2023-07-13T02:15:20;14.57;99.99
64198;SHT31;50512;53.666;9.700;2023-07-13T02:17:46;14.55;99.99
64198;SHT31;50512;53.666;9.700;2023-07-13T02:20:13;14.55;99.99
64198;SHT31;50512;53.666;9.700;2023-07-13T02:22:39;14.50;99.99
64198;SHT31;50512;53.666;9.700;2023-07-13T02:25:06;14.49;99.99
64198;SHT31;50512;53.666;9.700;2023-07-13T02:27:34;14.46;99.99
64198;SHT31;50512;53.666;9.700;2023-07-13T02:30:00;14.40;99.99
64198;SHT31;50512;53.666;9.700;2023-07-13T02:32:27;14.40;99.99
64198;SHT31;50512;53.666;9.700;2023-07-13T02:34:54;14.38;99.99
64198;SHT31;50512;53.666;9.700;2023-07-13T02:37:20;14.36;99.99
64198;SHT31;50512;53.666;9.700;2023-07-13T02:39:47;14.36;99.99
64198;SHT31;50512;53.666;9.700;2023-07-13T02:42:14;14.33;99.99
64198;SHT31;50512;53.666;9.700;2023-07-13T02:44:41;14.32;99.99
64198;SHT31;50512;53.666;9.700;2023-07-13T02:47:08;14.31;99.99
64198;SHT31;50512;53.666;9.700;2023-07-13T02:49:34;14.29;99.99
64198;SHT31;50512;53.666;9.700;2023-07-13T02:52:02;14.28;99.99
64198;SHT31;50512;53.666;9.700;2023-07-13T02:54:28;14.28;99.99
64198;SHT31;50512;53.666;9.700;2023-07-13T02:56:55;14.26;99.99
64198;SHT31;50512;53.666;9.700;2023-07-13T02:59:21;14.28;99.99
64198;SHT31;50512;53.666;9.700;2023-07-13T03:01:49;14.21;99.99
64198;SHT31;50512;53.666;9.700;2023-07-13T03:04:15;14.21;99.99
64198;SHT31;50512;53.666;9.700;2023-07-13T03:06:45;14.18;99.99
64198;SHT31;50512;53.666;9.700;2023-07-13T03:09:11;14.19;99.99
64198;SHT31;50512;53.666;9.700;2023-07-13T03:11:38;14.18;99.99
64198;SHT31;50512;53.666;9.700;2023-07-13T03:14:04;14.14;99.99
64198;SHT31;50512;53.666;9.700;2023-07-13T03:16:31;14.12;99.99
64198;SHT31;50512;53.666;9.700;2023-07-13T03:18:59;14.10;99.99
64198;SHT31;50512;53.666;9.700;2023-07-13T03:21:25;14.08;99.99
64198;SHT31;50512;53.666;9.700;2023-07-13T03:23:51;14.11;99.99
64198;SHT31;50512;53.666;9.700;2023-07-13T03:26:19;14.10;99.99
64198;SHT31;50512;53.666;9.700;2023-07-13T03:28:46;14.11;99.99
64198;SHT31;50512;53.666;9.700;2023-07-13T03:31:15;14.11;99.99
64198;SHT31;50512;53.666;9.700;2023-07-13T03:33:42;14.12;99.99
64198;SHT31;50512;53.666;9.700;2023-07-13T03:36:14;14.10;99.99
64198;SHT31;50512;53.666;9.700;2023-07-13T03:38:41;14.08;99.99
64198;SHT31;50512;53.666;9.700;2023-07-13T03:41:07;14.02;99.99
64198;SHT31;50512;53.666;9.700;2023-07-13T03:43:34;14.08;99.99
64198;SHT31;50512;53.666;9.700;2023-07-13T03:46:00;14.12;99.99
64198;SHT31;50512;53.666;9.700;2023-07-13T03:48:27;14.14;99.87
64198;SHT31;50512;53.666;9.700;2023-07-13T03:50:53;14.14;99.61
64198;SHT31;50512;53.666;9.700;2023-07-13T03:53:21;14.22;98.96
64198;SHT31;50512;53.666;9.700;2023-07-13T03:55:47;14.26;99.09
64198;SHT31;50512;53.666;9.700;2023-07-13T03:58:31;14.22;99.17
64198;SHT31;50512;53.666;9.700;2023-07-13T04:00:59;14.18;99.68
64198;SHT31;50512;53.666;9.700;2023-07-13T04:03:27;14.24;99.63
64198;SHT31;50512;53.666;9.700;2023-07-13T04:05:54;14.25;99.83
64198;SHT31;50512;53.666;9.700;2023-07-13T04:08:26;14.32;99.09
64198;SHT31;50512;53.666;9.700;2023-07-13T04:10:53;14.32;99.07
64198;SHT31;50512;53.666;9.700;2023-07-13T04:13:19;14.36;98.85
64198;SHT31;50512;53.666;9.700;2023-07-13T04:15:46;14.31;99.09
64198;SHT31;50512;53.666;9.700;2023-07-13T04:18:12;14.26;99.38
64198;SHT31;50512;53.666;9.700;2023-07-13T04:20:39;14.26;98.95
64198;SHT31;50512;53.666;9.700;2023-07-13T04:23:05;14.21;99.17
64198;SHT31;50512;53.666;9.700;2023-07-13T04:25:42;14.19;99.31
64198;SHT31;50512;53.666;9.700;2023-07-13T04:28:09;14.18;99.02
64198;SHT31;50512;53.666;9.700;2023-07-13T04:30:35;14.17;99.69
64198;SHT31;50512;53.666;9.700;2023-07-13T04:33:02;14.12;99.46
64198;SHT31;50512;53.666;9.700;2023-07-13T04:35:29;14.15;99.42
64198;SHT31;50512;53.666;9.700;2023-07-13T04:37:56;14.19;99.38
64198;SHT31;50512;53.666;9.700;2023-07-13T04:40:23;14.24;99.21
64198;SHT31;50512;53.666;9.700;2023-07-13T04:42:51;14.28;99.42
64198;SHT31;50512;53.666;9.700;2023-07-13T04:45:17;14.32;99.22
64198;SHT31;50512;53.666;9.700;2023-07-13T04:47:44;14.35;99.49
64198;SHT31;50512;53.666;9.700;2023-07-13T04:50:12;14.42;99.47
64198;SHT31;50512;53.666;9.700;2023-07-13T04:52:40;14.49;99.18
64198;SHT31;50512;53.666;9.700;2023-07-13T04:55:07;14.53;99.09
64198;SHT31;50512;53.666;9.700;2023-07-13T04:57:34;14.66;98.79
64198;SHT31;50512;53.666;9.700;2023-07-13T05:00:02;14.79;98.55
64198;SHT31;50512;53.666;9.700;2023-07-13T05:02:32;14.91;98.93
64198;SHT31;50512;53.666;9.700;2023-07-13T05:04:58;14.87;98.01
64198;SHT31;50512;53.666;9.700;2023-07-13T05:07:26;14.98;99.09
64198;SHT31;50512;53.666;9.700;2023-07-13T05:09:52;15.03;98.45
64198;SHT31;50512;53.666;9.700;2023-07-13T05:12:19;15.10;98.78
64198;SHT31;50512;53.666;9.700;2023-07-13T05:14:45;15.17;98.11
64198;SHT31;50512;53.666;9.700;2023-07-13T05:17:15;15.21;97.87
64198;SHT31;50512;53.666;9.700;2023-07-13T05:19:41;15.20;98.06
64198;SHT31;50512;53.666;9.700;2023-07-13T05:22:08;15.20;97.50
64198;SHT31;50512;53.666;9.700;2023-07-13T05:24:35;15.25;98.55
64198;SHT31;50512;53.666;9.700;2023-07-13T05:27:02;15.29;98.41
64198;SHT31;50512;53.666;9.700;2023-07-13T05:29:29;15.35;97.61
64198;SHT31;50512;53.666;9.700;2023-07-13T05:31:55;15.40;98.28
64198;SHT31;50512;53.666;9.700;2023-07-13T05:34:23;15.39;97.84
64198;SHT31;50512;53.666;9.700;2023-07-13T05:36:50;15.42;97.43
64198;SHT31;50512;53.666;9.700;2023-07-13T05:39:17;15.45;97.44
64198;SHT31;50512;53.666;9.700;2023-07-13T05:41:44;15.43;97.97
64198;SHT31;50512;53.666;9.700;2023-07-13T05:44:11;15.49;97.62
64198;SHT31;50512;53.666;9.700;2023-07-13T05:46:37;15.45;98.24
64198;SHT31;50512;53.666;9.700;2023-07-13T05:49:03;15.50;97.80
64198;SHT31;50512;53.666;9.700;2023-07-13T05:51:31;15.58;97.88
64198;SHT31;50512;53.666;9.700;2023-07-13T05:53:58;15.60;97.36
64198;SHT31;50512;53.666;9.700;2023-07-13T05:56:25;15.55;96.62
64198;SHT31;50512;53.666;9.700;2023-07-13T05:58:51;15.59;96.96
64198;SHT31;50512;53.666;9.700;2023-07-13T06:01:18;15.62;97.17
64198;SHT31;50512;53.666;9.700;2023-07-13T06:03:46;15.58;96.99
64198;SHT31;50512;53.666;9.700;2023-07-13T06:06:12;15.69;97.67
64198;SHT31;50512;53.666;9.700;2023-07-13T06:08:40;15.65;96.91
64198;SHT31;50512;53.666;9.700;2023-07-13T06:11:09;15.80;97.21
64198;SHT31;50512;53.666;9.700;2023-07-13T06:13:36;15.69;95.89
64198;SHT31;50512;53.666;9.700;2023-07-13T06:16:03;15.73;95.50
64198;SHT31;50512;53.666;9.700;2023-07-13T06:18:30;15.89;96.65
64198;SHT31;50512;53.666;9.700;2023-07-13T06:20:57;15.93;96.27
64198;SHT31;50512;53.666;9.700;2023-07-13T06:23:24;15.97;96.51
64198;SHT31;50512;53.666;9.700;2023-07-13T06:25:52;15.90;95.51
64198;SHT31;50512;53.666;9.700;2023-07-13T06:28:18;16.03;95.45
64198;SHT31;50512;53.666;9.700;2023-07-13T06:30:45;16.04;94.66
64198;SHT31;50512;53.666;9.700;2023-07-13T06:33:11;16.04;95.63
64198;SHT31;50512;53.666;9.700;2023-07-13T06:35:38;16.08;95.86
64198;SHT31;50512;53.666;9.700;2023-07-13T06:38:04;16.15;96.16
64198;SHT31;50512;53.666;9.700;2023-07-13T06:40:31;16.10;95.62
64198;SHT31;50512;53.666;9.700;2023-07-13T06:42:59;16.13;95.85
64198;SHT31;50512;53.666;9.700;2023-07-13T06:45:25;16.08;94.97
64198;SHT31;50512;53.666;9.700;2023-07-13T06:47:52;16.10;95.24
64198;SHT31;50512;53.666;9.700;2023-07-13T06:50:18;16.11;95.15
64198;SHT31;50512;53.666;9.700;2023-07-13T06:52:44;16.22;95.62
64198;SHT31;50512;53.666;9.700;2023-07-13T06:55:11;16.28;95.01
64198;SHT31;50512;53.666;9.700;2023-07-13T06:57:37;16.36;95.48
64198;SHT31;50512;53.666;9.700;2023-07-13T07:00:06;16.45;94.70
64198;SHT31;50512;53.666;9.700;2023-07-13T07:02:35;16.59;95.62
64198;SHT31;50512;53.666;9.700;2023-07-13T07:05:01;16.59;93.41
64198;SHT31;50512;53.666;9.700;2023-07-13T07:07:28;16.90;94.27
64198;SHT31;50512;53.666;9.700;2023-07-13T07:09:54;17.07;93.04
64198;SHT31;50512;53.666;9.700;2023-07-13T07:12:21;17.45;92.87
64198;SHT31;50512;53.666;9.700;2023-07-13T07:14:47;17.73;91.41
64198;SHT31;50512;53.666;9.700;2023-07-13T07:17:15;17.91;90.88
64198;SHT31;50512;53.666;9.700;2023-07-13T07:19:41;17.83;90.67
64198;SHT31;50512;53.666;9.700;2023-07-13T07:22:08;17.79;90.71
64198;SHT31;50512;53.666;9.700;2023-07-13T07:24:34;17.61;89.99
64198;SHT31;50512;53.666;9.700;2023-07-13T07:27:01;17.56;91.51
64198;SHT31;50512;53.666;9.700;2023-07-13T07:29:27;17.68;91.51
64198;SHT31;50512;53.666;9.700;2023-07-13T07:31:54;17.65;90.05
64198;SHT31;50512;53.666;9.700;2023-07-13T07:34:21;17.68;90.63
64198;SHT31;50512;53.666;9.700;2023-07-13T07:36:48;17.94;90.20
64198;SHT31;50512;53.666;9.700;2023-07-13T07:39:14;18.51;89.71
64198;SHT31;50512;53.666;9.700;2023-07-13T07:41:41;18.83;88.40
64198;SHT31;50512;53.666;9.700;2023-07-13T07:44:08;18.65;87.35
64198;SHT31;50512;53.666;9.700;2023-07-13T07:46:35;19.47;85.80
64198;SHT31;50512;53.666;9.700;2023-07-13T07:49:01;19.35;86.30
64198;SHT31;50512;53.666;9.700;2023-07-13T07:51:29;19.69;84.82
64198;SHT31;50512;53.666;9.700;2023-07-13T07:53:56;19.63;82.37
64198;SHT31;50512;53.666;9.700;2023-07-13T07:56:22;20.16;83.11
64198;SHT31;50512;53.666;9.700;2023-07-13T07:58:48;19.92;82.70
64198;SHT31;50512;53.666;9.700;2023-07-13T08:01:15;20.05;83.29
64198;SHT31;50512;53.666;9.700;2023-07-13T08:03:42;19.76;82.82
64198;SHT31;50512;53.666;9.700;2023-07-13T08:06:08;20.06;82.60
64198;SHT31;50512;53.666;9.700;2023-07-13T08:08:36;20.37;82.09
64198;SHT31;50512;53.666;9.700;2023-07-13T08:11:04;21.11;81.74
64198;SHT31;50512;53.666;9.700;2023-07-13T08:13:31;21.23;78.84
64198;SHT31;50512;53.666;9.700;2023-07-13T08:15:57;21.62;78.38
64198;SHT31;50512;53.666;9.700;2023-07-13T08:18:24;20.33;80.05
64198;SHT31;50512;53.666;9.700;2023-07-13T08:20:50;20.16;81.14
64198;SHT31;50512;53.666;9.700;2023-07-13T08:23:17;20.06;82.22
64198;SHT31;50512;53.666;9.700;2023-07-13T08:25:52;20.00;83.11
64198;SHT31;50512;53.666;9.700;2023-07-13T08:28:19;20.14;81.22
64198;SHT31;50512;53.666;9.700;2023-07-13T08:30:45;20.18;82.07
64198;SHT31;50512;53.666;9.700;2023-07-13T08:33:14;20.44;81.62
64198;SHT31;50512;53.666;9.700;2023-07-13T08:35:45;20.10;82.79
64198;SHT31;50512;53.666;9.700;2023-07-13T08:38:11;20.07;81.94
64198;SHT31;50512;53.666;9.700;2023-07-13T08:40:38;20.30;80.69
64198;SHT31;50512;53.666;9.700;2023-07-13T08:43:15;20.47;82.17
64198;SHT31;50512;53.666;9.700;2023-07-13T08:45:44;20.76;79.83
64198;SHT31;50512;53.666;9.700;2023-07-13T08:48:14;20.56;80.67
64198;SHT31;50512;53.666;9.700;2023-07-13T08:50:48;20.27;82.40
64198;SHT31;50512;53.666;9.700;2023-07-13T08:53:16;20.20;81.14
64198;SHT31;50512;53.666;9.700;2023-07-13T08:55:43;19.57;82.56
64198;SHT31;50512;53.666;9.700;2023-07-13T08:58:13;20.09;82.98
64198;SHT31;50512;53.666;9.700;2023-07-13T09:00:44;20.67;81.06
64198;SHT31;50512;53.666;9.700;2023-07-13T09:03:20;21.00;79.72
64198;SHT31;50512;53.666;9.700;2023-07-13T09:05:52;21.26;78.98
64198;SHT31;50512;53.666;9.700;2023-07-13T09:08:33;20.90;77.70
64198;SHT31;50512;53.666;9.700;2023-07-13T09:11:11;20.30;76.71
64198;SHT31;50512;53.666;9.700;2023-07-13T09:13:47;20.72;77.03
64198;SHT31;50512;53.666;9.700;2023-07-13T09:16:17;20.96;78.24
64198;SHT31;50512;53.666;9.700;2023-07-13T09:18:46;21.17;78.95
64198;SHT31;50512;53.666;9.700;2023-07-13T09:21:15;21.26;75.68
64198;SHT31;50512;53.666;9.700;2023-07-13T09:23:43;21.26;75.65
64198;SHT31;50512;53.666;9.700;2023-07-13T09:26:12;21.37;75.03
64198;SHT31;50512;53.666;9.700;2023-07-13T09:28:43;21.19;76.63
64198;SHT31;50512;53.666;9.700;2023-07-13T09:31:13;21.27;74.35
64198;SHT31;50512;53.666;9.700;2023-07-13T09:33:40;21.64;75.79
64198;SHT31;50512;53.666;9.700;2023-07-13T09:36:18;21.47;74.93
64198;SHT31;50512;53.666;9.700;2023-07-13T09:38:45;21.77;73.80
64198;SHT31;50512;53.666;9.700;2023-07-13T09:41:20;21.66;74.32
64198;SHT31;50512;53.666;9.700;2023-07-13T09:44:08;21.34;75.44
64198;SHT31;50512;53.666;9.700;2023-07-13T09:46:36;21.13;73.97
64198;SHT31;50512;53.666;9.700;2023-07-13T09:49:03;21.31;69.78
64198;SHT31;50512;53.666;9.700;2023-07-13T09:51:29;21.77;73.64
64198;SHT31;50512;53.666;9.700;2023-07-13T09:53:56;21.65;71.81
64198;SHT31;50512;53.666;9.700;2023-07-13T09:56:25;21.55;69.63
64198;SHT31;50512;53.666;9.700;2023-07-13T09:58:52;22.12;74.34
64198;SHT31;50512;53.666;9.700;2023-07-13T10:01:33;22.26;69.85
64198;SHT31;50512;53.666;9.700;2023-07-13T10:04:00;22.41;71.73
64198;SHT31;50512;53.666;9.700;2023-07-13T10:06:26;22.03;70.41
64198;SHT31;50512;53.666;9.700;2023-07-13T10:08:56;22.23;68.92
64198;SHT31;50512;53.666;9.700;2023-07-13T10:11:26;22.32;71.39
64198;SHT31;50512;53.666;9.700;2023-07-13T10:13:55;22.24;67.43
64198;SHT31;50512;53.666;9.700;2023-07-13T10:16:23;22.57;70.14
64198;SHT31;50512;53.666;9.700;2023-07-13T10:18:56;22.12;69.72
64198;SHT31;50512;53.666;9.700;2023-07-13T10:21:31;21.86;68.46
64198;SHT31;50512;53.666;9.700;2023-07-13T10:24:04;21.99;69.60
64198;SHT31;50512;53.666;9.700;2023-07-13T10:26:33;22.09;70.78
64198;SHT31;50512;53.666;9.700;2023-07-13T10:29:03;21.38;71.19
64198;SHT31;50512;53.666;9.700;2023-07-13T10:31:34;21.13;72.03
64198;SHT31;50512;53.666;9.700;2023-07-13T10:34:02;21.34;72.83
64198;SHT31;50512;53.666;9.700;2023-07-13T10:36:34;21.47;72.35
64198;SHT31;50512;53.666;9.700;2023-07-13T10:39:05;21.24;71.53
64198;SHT31;50512;53.666;9.700;2023-07-13T10:41:36;21.37;71.82
64198;SHT31;50512;53.666;9.700;2023-07-13T10:44:06;21.62;72.42
64198;SHT31;50512;53.666;9.700;2023-07-13T10:46:35;21.83;70.42
64198;SHT31;50512;53.666;9.700;2023-07-13T10:49:05;21.44;65.98
64198;SHT31;50512;53.666;9.700;2023-07-13T10:51:34;21.64;68.16
64198;SHT31;50512;53.666;9.700;2023-07-13T10:54:17;21.62;66.35
64198;SHT31;50512;53.666;9.700;2023-07-13T10:56:45;21.68;68.90
64198;SHT31;50512;53.666;9.700;2023-07-13T10:59:14;21.50;69.55
64198;SHT31;50512;53.666;9.700;2023-07-13T11:02:06;20.45;71.08
64198;SHT31;50512;53.666;9.700;2023-07-13T11:04:42;20.16;71.52
64198;SHT31;50512;53.666;9.700;2023-07-13T11:07:16;20.14;73.77
64198;SHT31;50512;53.666;9.700;2023-07-13T11:09:43;20.40;73.00
64198;SHT31;50512;53.666;9.700;2023-07-13T11:15:12;21.00;71.35
64198;SHT31;50512;53.666;9.700;2023-07-13T11:17:48;21.54;71.71
64198;SHT31;50512;53.666;9.700;2023-07-13T11:20:34;21.96;71.19
64198;SHT31;50512;53.666;9.700;2023-07-13T11:23:19;21.48;68.61
64198;SHT31;50512;53.666;9.700;2023-07-13T11:25:46;21.53;70.05
64198;SHT31;50512;53.666;9.700;2023-07-13T11:28:17;21.66;68.22
64198;SHT31;50512;53.666;9.700;2023-07-13T11:30:47;21.62;69.58
64198;SHT31;50512;53.666;9.700;2023-07-13T11:33:16;21.13;71.05
64198;SHT31;50512;53.666;9.700;2023-07-13T11:35:59;20.67;73.71
64198;SHT31;50512;53.666;9.700;2023-07-13T11:38:31;20.28;74.21
64198;SHT31;50512;53.666;9.700;2023-07-13T11:41:01;19.92;75.31
64198;SHT31;50512;53.666;9.700;2023-07-13T11:43:28;19.48;76.49
64198;SHT31;50512;53.666;9.700;2023-07-13T11:45:54;18.56;82.91
64198;SHT31;50512;53.666;9.700;2023-07-13T11:48:23;17.65;86.94
64198;SHT31;50512;53.666;9.700;2023-07-13T11:50:58;17.17;88.54
64198;SHT31;50512;53.666;9.700;2023-07-13T11:53:28;17.15;90.46
64198;SHT31;50512;53.666;9.700;2023-07-13T11:55:56;17.25;90.10
64198;SHT31;50512;53.666;9.700;2023-07-13T11:58:25;17.35;89.37
64198;SHT31;50512;53.666;9.700;2023-07-13T12:00:53;17.27;90.24
64198;SHT31;50512;53.666;9.700;2023-07-13T12:03:22;17.30;91.12
64198;SHT31;50512;53.666;9.700;2023-07-13T12:06:00;17.32;91.71
64198;SHT31;50512;53.666;9.700;2023-07-13T12:08:27;17.20;91.77
64198;SHT31;50512;53.666;9.700;2023-07-13T12:10:59;17.11;92.31
64198;SHT31;50512;53.666;9.700;2023-07-13T12:13:27;17.14;93.56
64198;SHT31;50512;53.666;9.700;2023-07-13T12:15:54;17.31;94.05
64198;SHT31;50512;53.666;9.700;2023-07-13T12:18:22;17.51;92.72
64198;SHT31;50512;53.666;9.700;2023-07-13T12:20:51;17.66;91.94
64198;SHT31;50512;53.666;9.700;2023-07-13T12:23:24;17.66;88.46
64198;SHT31;50512;53.666;9.700;2023-07-13T12:25:51;17.93;90.57
64198;SHT31;50512;53.666;9.700;2023-07-13T12:28:22;17.72;87.37
64198;SHT31;50512;53.666;9.700;2023-07-13T12:30:58;17.89;87.55
64198;SHT31;50512;53.666;9.700;2023-07-13T12:33:28;18.03;86.25
64198;SHT31;50512;53.666;9.700;2023-07-13T12:35:55;18.31;88.11
64198;SHT31;50512;53.666;9.700;2023-07-13T12:38:24;18.14;85.78
64198;SHT31;50512;53.666;9.700;2023-07-13T12:40:52;18.35;88.09
64198;SHT31;50512;53.666;9.700;2023-07-13T12:43:20;18.38;88.35
64198;SHT31;50512;53.666;9.700;2023-07-13T12:45:58;18.35;85.03
64198;SHT31;50512;53.666;9.700;2023-07-13T12:48:25;18.28;85.18
64198;SHT31;50512;53.666;9.700;2023-07-13T12:50:54;18.30;86.75
64198;SHT31;50512;53.666;9.700;2023-07-13T12:53:24;18.42;87.60
64198;SHT31;50512;53.666;9.700;2023-07-13T12:55:57;18.35;86.09
64198;SHT31;50512;53.666;9.700;2023-07-13T12:58:26;18.47;84.13
64198;SHT31;50512;53.666;9.700;2023-07-13T13:00:54;18.69;83.67
64198;SHT31;50512;53.666;9.700;2023-07-13T13:03:27;18.62;85.25
64198;SHT31;50512;53.666;9.700;2023-07-13T13:05:59;19.08;87.86
64198;SHT31;50512;53.666;9.700;2023-07-13T13:08:30;19.06;86.20
64198;SHT31;50512;53.666;9.700;2023-07-13T13:10:56;19.32;85.93
64198;SHT31;50512;53.666;9.700;2023-07-13T13:13:23;19.03;84.53
64198;SHT31;50512;53.666;9.700;2023-07-13T13:15:49;18.77;86.11
64198;SHT31;50512;53.666;9.700;2023-07-13T13:18:18;18.72;85.86
64198;SHT31;50512;53.666;9.700;2023-07-13T13:20:45;19.03;86.46
64198;SHT31;50512;53.666;9.700;2023-07-13T13:23:13;18.82;87.24
64198;SHT31;50512;53.666;9.700;2023-07-13T13:25:44;18.40;85.55
64198;SHT31;50512;53.666;9.700;2023-07-13T13:28:16;18.56;87.24
64198;SHT31;50512;53.666;9.700;2023-07-13T13:30:43;18.14;87.64
64198;SHT31;50512;53.666;9.700;2023-07-13T13:33:10;18.10;85.68
64198;SHT31;50512;53.666;9.700;2023-07-13T13:35:37;18.45;87.44
64198;SHT31;50512;53.666;9.700;2023-07-13T13:38:10;18.40;86.05
64198;SHT31;50512;53.666;9.700;2023-07-13T13:40:36;18.10;87.71
64198;SHT31;50512;53.666;9.700;2023-07-13T13:43:13;18.23;88.84
64198;SHT31;50512;53.666;9.700;2023-07-13T13:45:40;18.15;87.96
64198;SHT31;50512;53.666;9.700;2023-07-13T13:48:07;17.80;86.66
64198;SHT31;50512;53.666;9.700;2023-07-13T13:50:37;17.83;88.89
64198;SHT31;50512;53.666;9.700;2023-07-13T13:53:03;18.08;90.53
64198;SHT31;50512;53.666;9.700;2023-07-13T13:55:30;18.23;88.69
64198;SHT31;50512;53.666;9.700;2023-07-13T13:57:56;18.47;87.35
64198;SHT31;50512;53.666;9.700;2023-07-13T14:00:24;19.02;87.50
64198;SHT31;50512;53.666;9.700;2023-07-13T14:02:51;19.14;84.82
64198;SHT31;50512;53.666;9.700;2023-07-13T14:05:21;18.87;85.15
64198;SHT31;50512;53.666;9.700;2023-07-13T14:07:47;18.92;83.64
64198;SHT31;50512;53.666;9.700;2023-07-13T14:10:16;19.03;86.58
64198;SHT31;50512;53.666;9.700;2023-07-13T14:12:44;19.10;84.05
64198;SHT31;50512;53.666;9.700;2023-07-13T14:15:14;19.30;83.98
64198;SHT31;50512;53.666;9.700;2023-07-13T14:17:44;19.25;83.97
64198;SHT31;50512;53.666;9.700;2023-07-13T14:20:12;19.45;82.64
64198;SHT31;50512;53.666;9.700;2023-07-13T14:22:39;19.54;82.24
64198;SHT31;50512;53.666;9.700;2023-07-13T14:25:10;19.58;82.82
64198;SHT31;50512;53.666;9.700;2023-07-13T14:27:37;19.83;81.51
64198;SHT31;50512;53.666;9.700;2023-07-13T14:30:07;20.12;80.90
64198;SHT31;50512;53.666;9.700;2023-07-13T14:32:35;20.31;79.44
64198;SHT31;50512;53.666;9.700;2023-07-13T14:35:03;20.28;75.33
64198;SHT31;50512;53.666;9.700;2023-07-13T14:37:30;20.27;76.71
64198;SHT31;50512;53.666;9.700;2023-07-13T14:39:56;20.52;76.06
64198;SHT31;50512;53.666;9.700;2023-07-13T14:42:23;20.65;76.48
64198;SHT31;50512;53.666;9.700;2023-07-13T14:44:49;20.90;77.70
64198;SHT31;50512;53.666;9.700;2023-07-13T14:47:17;20.85;73.44
64198;SHT31;50512;53.666;9.700;2023-07-13T14:49:44;20.85;73.63
64198;SHT31;50512;53.666;9.700;2023-07-13T14:52:17;20.73;73.61
64198;SHT31;50512;53.666;9.700;2023-07-13T14:54:44;20.96;74.89
64198;SHT31;50512;53.666;9.700;2023-07-13T14:57:11;20.78;74.84
64198;SHT31;50512;53.666;9.700;2023-07-13T14:59:38;20.82;74.42
64198;SHT31;50512;53.666;9.700;2023-07-13T15:02:13;21.06;73.83
64198;SHT31;50512;53.666;9.700;2023-07-13T15:04:40;20.82;70.90
64198;SHT31;50512;53.666;9.700;2023-07-13T15:07:09;20.92;73.46
64198;SHT31;50512;53.666;9.700;2023-07-13T15:09:37;20.79;72.22
64198;SHT31;50512;53.666;9.700;2023-07-13T15:12:05;20.95;69.98
64198;SHT31;50512;53.666;9.700;2023-07-13T15:14:31;20.55;71.27
64198;SHT31;50512;53.666;9.700;2023-07-13T15:16:58;20.54;70.70
64198;SHT31;50512;53.666;9.700;2023-07-13T15:19:25;20.45;70.87
64198;SHT31;50512;53.666;9.700;2023-07-13T15:21:52;20.61;74.25
64198;SHT31;50512;53.666;9.700;2023-07-13T15:24:20;20.67;71.45
64198;SHT31;50512;53.666;9.700;2023-07-13T15:26:48;20.59;73.41
64198;SHT31;50512;53.666;9.700;2023-07-13T15:29:15;20.49;74.22
64198;SHT31;50512;53.666;9.700;2023-07-13T15:31:42;20.18;72.36
64198;SHT31;50512;53.666;9.700;2023-07-13T15:34:11;20.13;76.25
64198;SHT31;50512;53.666;9.700;2023-07-13T15:36:38;20.01;76.83
64198;SHT31;50512;53.666;9.700;2023-07-13T15:39:05;19.96;78.90
64198;SHT31;50512;53.666;9.700;2023-07-13T15:41:31;19.54;80.79